Time;durP1;ratioP1;P1;durP2;ratioP2;P2;SDS_P1;SDS_P2;PMS_P1;PMS_P2;Temp;Humidity;BMP_temperature;BMP_pressure;BME280_temperature;BME280_humidity;BME280_pressure;Samples;Min_cycle;Max_cycle;Signal;HPM_P1;HPM_P2
2023/03/11 00:00:40;;;;;;;;;;;2.50;99.90;;;;;;4989208;28;19945;-67
2023/03/11 00:03:07;;;;;;;;;;;2.40;99.90;;;;;;4988676;28;20372;-64
2023/03/11 00:05:33;;;;;;;;;;;2.50;99.90;;;;;;4990624;28;19936;-65
2023/03/11 00:07:59;;;;;;;;;;;2.50;99.90;;;;;;4988485;28;19941;-65
2023/03/11 00:10:26;;;;;;;;;;;2.50;99.90;;;;;;4988722;28;19918;-65
2023/03/11 00:12:52;;;;;;;;;;;2.50;99.90;;;;;;4991612;28;19957;-65
2023/03/11 00:15:18;;;;;;;;;;;2.50;99.90;;;;;;4991896;28;20426;-66
2023/03/11 00:17:43;;;;;;;;;;;2.50;99.90;;;;;;4989684;28;20296;-64
2023/03/11 00:20:15;;;;;;;;;;;2.50;99.90;;;;;;4989530;28;19914;-65
2023/03/11 00:22:40;;;;;;;;;;;2.50;99.90;;;;;;4988793;28;19957;-66
2023/03/11 00:25:06;;;;;;;;;;;2.50;99.90;;;;;;4992491;28;20482;-72
2023/03/11 00:27:31;;;;;;;;;;;2.50;99.90;;;;;;4972541;28;20387;-65
2023/03/11 00:29:57;;;;;;;;;;;2.50;99.90;;;;;;4986641;28;19957;-66
2023/03/11 00:32:22;;;;;;;;;;;2.50;99.90;;;;;;4991238;28;19921;-65
2023/03/11 00:34:48;;;;;;;;;;;2.50;99.90;;;;;;4987404;28;19914;-65
2023/03/11 00:37:13;;;;;;;;;;;2.50;99.90;;;;;;4989375;28;20009;-66
2023/03/11 00:39:38;;;;;;;;;;;2.50;99.90;;;;;;4988939;28;20447;-65
2023/03/11 00:42:04;;;;;;;;;;;2.50;99.90;;;;;;4995171;28;20308;-65
2023/03/11 00:44:29;;;;;;;;;;;2.50;99.90;;;;;;4988053;28;19917;-66
2023/03/11 00:46:55;;;;;;;;;;;2.50;99.90;;;;;;4990122;28;20384;-66
2023/03/11 00:49:20;;;;;;;;;;;2.40;99.90;;;;;;4989639;28;20281;-66
2023/03/11 00:51:46;;;;;;;;;;;2.40;99.90;;;;;;4975812;28;19917;-66
2023/03/11 00:54:11;;;;;;;;;;;2.30;99.90;;;;;;4991458;28;19996;-66
2023/03/11 00:56:37;;;;;;;;;;;2.30;99.90;;;;;;4991570;28;19922;-65
2023/03/11 00:59:03;;;;;;;;;;;2.20;99.90;;;;;;4990711;28;20303;-65
2023/03/11 01:01:28;;;;;;;;;;;2.20;99.90;;;;;;4986664;28;19921;-65
2023/03/11 01:03:53;;;;;;;;;;;2.20;99.90;;;;;;4988209;28;19924;-63
2023/03/11 01:06:19;;;;;;;;;;;2.20;99.90;;;;;;4993131;28;20028;-66
2023/03/11 01:08:44;;;;;;;;;;;2.20;99.90;;;;;;4990495;28;19945;-66
2023/03/11 01:11:10;;;;;;;;;;;2.20;99.90;;;;;;4993322;28;19914;-65
2023/03/11 01:13:35;;;;;;;;;;;2.30;99.90;;;;;;4989499;28;19913;-65
2023/03/11 01:16:01;;;;;;;;;;;2.30;99.90;;;;;;4993022;28;19922;-65
2023/03/11 01:18:27;;;;;;;;;;;2.30;99.90;;;;;;4991993;28;19917;-64
2023/03/11 01:20:52;;;;;;;;;;;2.30;99.90;;;;;;4992352;28;20013;-65
2023/03/11 01:23:17;;;;;;;;;;;2.40;99.90;;;;;;4974866;28;19921;-64
2023/03/11 01:25:43;;;;;;;;;;;2.40;99.90;;;;;;4995331;28;19921;-66
2023/03/11 01:28:09;;;;;;;;;;;2.40;99.90;;;;;;4996231;28;19913;-66
2023/03/11 01:30:35;;;;;;;;;;;2.40;99.90;;;;;;4992706;28;19921;-66
2023/03/11 01:33:01;;;;;;;;;;;2.50;99.90;;;;;;4990448;28;20434;-66
2023/03/11 01:35:27;;;;;;;;;;;2.40;99.90;;;;;;4993525;28;19921;-65
2023/03/11 01:37:53;;;;;;;;;;;2.50;99.90;;;;;;4990368;28;19925;-65
2023/03/11 01:40:32;;;;;;;;;;;2.50;99.90;;;;;;4993155;28;19914;-66
2023/03/11 01:42:58;;;;;;;;;;;2.50;99.90;;;;;;4992083;28;19921;-66
2023/03/11 01:45:42;;;;;;;;;;;2.50;99.90;;;;;;4988673;28;19929;-63
2023/03/11 01:48:09;;;;;;;;;;;2.50;99.90;;;;;;4994980;28;19921;-66
2023/03/11 01:50:37;;;;;;;;;;;2.50;99.90;;;;;;4993923;28;19922;-65
2023/03/11 01:53:03;;;;;;;;;;;2.40;99.90;;;;;;4990219;28;19933;-65
2023/03/11 01:55:29;;;;;;;;;;;2.40;99.90;;;;;;4992268;28;19914;-65
2023/03/11 01:57:55;;;;;;;;;;;2.40;99.90;;;;;;4989385;28;19914;-67
2023/03/11 02:00:21;;;;;;;;;;;2.40;99.90;;;;;;4994120;28;19921;-66
2023/03/11 02:02:54;;;;;;;;;;;2.40;99.90;;;;;;4988688;28;20492;-64
2023/03/11 02:05:20;;;;;;;;;;;2.40;99.90;;;;;;4991704;28;20012;-65
2023/03/11 02:07:46;;;;;;;;;;;2.30;99.90;;;;;;4992044;28;20369;-66
2023/03/11 02:10:12;;;;;;;;;;;2.30;99.90;;;;;;4973114;28;19921;-67
2023/03/11 02:12:38;;;;;;;;;;;2.20;99.90;;;;;;4993056;28;19965;-66
2023/03/11 02:15:05;;;;;;;;;;;2.20;99.90;;;;;;4986369;28;19914;-66
2023/03/11 02:17:31;;;;;;;;;;;2.10;99.90;;;;;;4989576;28;19922;-66
2023/03/11 02:20:01;;;;;;;;;;;2.10;99.90;;;;;;4991011;28;20455;-66
2023/03/11 02:22:32;;;;;;;;;;;2.10;99.90;;;;;;4989530;28;19972;-66
2023/03/11 02:25:08;;;;;;;;;;;2.10;99.90;;;;;;4990199;28;19933;-66
2023/03/11 02:27:35;;;;;;;;;;;2.20;99.90;;;;;;4991291;28;20048;-66
2023/03/11 02:30:01;;;;;;;;;;;2.10;99.90;;;;;;4991604;28;19920;-66
2023/03/11 02:32:26;;;;;;;;;;;2.10;99.90;;;;;;4990126;28;20008;-67
2023/03/11 02:34:52;;;;;;;;;;;2.10;99.90;;;;;;4988907;28;19984;-65
2023/03/11 02:37:17;;;;;;;;;;;2.00;99.90;;;;;;4991866;28;19914;-66
2023/03/11 02:39:44;;;;;;;;;;;2.00;99.90;;;;;;4988039;28;19914;-65
2023/03/11 02:42:12;;;;;;;;;;;2.00;99.90;;;;;;4993889;28;19960;-66
2023/03/11 02:44:38;;;;;;;;;;;1.90;99.90;;;;;;4990326;28;19921;-66
2023/03/11 02:47:04;;;;;;;;;;;1.80;99.90;;;;;;4989810;28;20383;-64
2023/03/11 02:49:30;;;;;;;;;;;1.90;99.90;;;;;;4989276;28;19929;-65
2023/03/11 02:51:55;;;;;;;;;;;1.80;99.90;;;;;;4974065;28;19918;-65
2023/03/11 02:54:21;;;;;;;;;;;1.90;99.90;;;;;;4990939;28;19914;-65
2023/03/11 02:56:46;;;;;;;;;;;1.80;99.90;;;;;;4989692;28;20000;-65
2023/03/11 02:59:12;;;;;;;;;;;1.80;99.90;;;;;;4991326;28;20364;-65
2023/03/11 03:01:37;;;;;;;;;;;1.80;99.90;;;;;;4988287;28;19922;-66
2023/03/11 03:04:02;;;;;;;;;;;1.80;99.90;;;;;;4991408;28;19924;-65
2023/03/11 03:06:28;;;;;;;;;;;1.80;99.90;;;;;;4992873;28;19914;-65
2023/03/11 03:08:54;;;;;;;;;;;1.80;99.90;;;;;;4974040;28;20388;-65
2023/03/11 03:11:19;;;;;;;;;;;1.80;99.90;;;;;;4992453;28;19961;-66
2023/03/11 03:13:45;;;;;;;;;;;1.70;99.90;;;;;;4991565;28;19965;-66
2023/03/11 03:16:11;;;;;;;;;;;1.70;99.90;;;;;;4987841;28;20008;-65
2023/03/11 03:18:36;;;;;;;;;;;1.60;99.90;;;;;;4986541;28;20323;-64
2023/03/11 03:21:02;;;;;;;;;;;1.60;99.90;;;;;;4991859;28;19920;-64
2023/03/11 03:23:27;;;;;;;;;;;1.60;99.90;;;;;;4986199;28;19926;-65
2023/03/11 03:25:52;;;;;;;;;;;1.60;99.90;;;;;;4987482;28;20399;-66
2023/03/11 03:28:18;;;;;;;;;;;1.60;99.90;;;;;;4987401;28;19922;-65
2023/03/11 03:30:43;;;;;;;;;;;1.50;99.90;;;;;;4987116;28;19914;-66
2023/03/11 03:33:09;;;;;;;;;;;1.50;99.90;;;;;;4986563;28;19961;-65
2023/03/11 03:35:34;;;;;;;;;;;1.50;99.90;;;;;;4988865;28;20296;-65
2023/03/11 03:38:00;;;;;;;;;;;1.50;99.90;;;;;;4991367;28;19914;-64
2023/03/11 03:40:25;;;;;;;;;;;1.50;99.90;;;;;;4987651;28;19961;-66
2023/03/11 03:42:51;;;;;;;;;;;1.40;99.90;;;;;;4969983;28;19928;-64
2023/03/11 03:45:16;;;;;;;;;;;1.40;99.90;;;;;;4990956;28;19944;-64
2023/03/11 03:47:42;;;;;;;;;;;1.30;99.90;;;;;;4975978;28;19925;-66
2023/03/11 03:50:08;;;;;;;;;;;1.30;99.90;;;;;;4988567;28;20438;-65
2023/03/11 03:52:34;;;;;;;;;;;1.30;99.90;;;;;;4989527;28;20606;-65
2023/03/11 03:55:00;;;;;;;;;;;1.30;99.90;;;;;;4990114;28;19961;-65
2023/03/11 03:57:27;;;;;;;;;;;1.30;99.90;;;;;;4989924;28;20015;-64
2023/03/11 03:59:52;;;;;;;;;;;1.20;99.90;;;;;;4984406;28;19932;-64
2023/03/11 04:02:18;;;;;;;;;;;1.10;99.90;;;;;;4988891;28;19914;-63
2023/03/11 04:04:43;;;;;;;;;;;1.10;99.90;;;;;;4994431;28;19914;-66
2023/03/11 04:07:08;;;;;;;;;;;1.10;99.90;;;;;;4990782;28;19913;-66
2023/03/11 04:09:34;;;;;;;;;;;1.10;99.90;;;;;;4987686;28;20394;-66
2023/03/11 04:11:59;;;;;;;;;;;1.10;99.90;;;;;;4992071;28;19958;-65
2023/03/11 04:14:25;;;;;;;;;;;1.10;99.90;;;;;;5003398;28;19941;-64
2023/03/11 04:16:50;;;;;;;;;;;1.10;99.90;;;;;;4987977;28;19996;-65
2023/03/11 04:19:16;;;;;;;;;;;1.10;99.90;;;;;;5000000;28;19969;-65
2023/03/11 04:21:41;;;;;;;;;;;0.90;99.90;;;;;;4976212;28;20331;-65
2023/03/11 04:24:07;;;;;;;;;;;0.90;99.90;;;;;;4989140;28;19922;-64
2023/03/11 04:26:33;;;;;;;;;;;;;;;;;;4988562;28;19941;-65
2023/03/11 04:28:59;;;;;;;;;;;;;;;;;;4990122;28;19914;-65
2023/03/11 04:31:25;;;;;;;;;;;;;;;;;;4988154;28;19968;-65
2023/03/11 04:33:51;;;;;;;;;;;;;;;;;;4988658;28;19996;-65
2023/03/11 04:36:16;;;;;;;;;;;0.90;99.90;;;;;;4990610;28;20004;-65
2023/03/11 04:38:42;;;;;;;;;;;1.00;99.90;;;;;;4992531;28;20372;-65
2023/03/11 04:41:07;;;;;;;;;;;1.00;99.90;;;;;;4994236;28;19918;-65
2023/03/11 04:43:33;;;;;;;;;;;1.00;99.90;;;;;;4974806;28;19924;-65
2023/03/11 04:45:58;;;;;;;;;;;1.00;99.90;;;;;;4992630;28;19941;-65
2023/03/11 04:48:25;;;;;;;;;;;1.00;99.90;;;;;;4992390;28;19952;-66
2023/03/11 04:50:51;;;;;;;;;;;1.00;99.90;;;;;;4991511;28;19956;-64
2023/03/11 04:53:17;;;;;;;;;;;1.00;99.90;;;;;;4980359;28;20295;-65
2023/03/11 04:55:42;;;;;;;;;;;0.90;99.90;;;;;;4993217;28;20288;-65
2023/03/11 04:58:07;;;;;;;;;;;0.90;99.90;;;;;;4992247;28;19918;-65
2023/03/11 05:00:33;;;;;;;;;;;0.90;99.90;;;;;;4990403;28;20367;-65
2023/03/11 05:02:59;;;;;;;;;;;0.90;99.90;;;;;;4992601;28;19961;-65
2023/03/11 05:05:24;;;;;;;;;;;0.80;99.90;;;;;;4993034;28;20339;-64
2023/03/11 05:07:50;;;;;;;;;;;0.80;99.90;;;;;;5004697;28;19914;-65
2023/03/11 05:10:21;;;;;;;;;;;0.80;99.90;;;;;;4989752;28;20458;-65
2023/03/11 05:12:47;;;;;;;;;;;0.90;99.90;;;;;;4999512;28;20007;-65
2023/03/11 05:15:12;;;;;;;;;;;0.80;99.90;;;;;;4993545;28;19956;-65
2023/03/11 05:17:37;;;;;;;;;;;0.80;99.90;;;;;;4973952;28;19914;-64
2023/03/11 05:20:06;;;;;;;;;;;0.90;99.90;;;;;;4989962;28;19913;-65
2023/03/11 05:22:31;;;;;;;;;;;0.90;99.90;;;;;;4991084;28;19913;-65
2023/03/11 05:24:57;;;;;;;;;;;0.90;99.90;;;;;;4990133;28;19922;-66
2023/03/11 05:27:22;;;;;;;;;;;0.90;99.90;;;;;;4992547;28;19918;-65
2023/03/11 05:29:48;;;;;;;;;;;0.90;99.90;;;;;;4990431;28;20009;-65
2023/03/11 05:32:13;;;;;;;;;;;1.00;99.90;;;;;;4990667;28;20379;-65
2023/03/11 05:34:39;;;;;;;;;;;0.90;99.90;;;;;;4993249;28;19913;-65
2023/03/11 05:37:04;;;;;;;;;;;1.00;99.90;;;;;;4993734;28;20032;-65
2023/03/11 05:39:30;;;;;;;;;;;1.00;99.90;;;;;;4991187;28;20339;-65
2023/03/11 05:41:55;;;;;;;;;;;1.10;99.90;;;;;;4973864;28;19921;-66
2023/03/11 05:44:21;;;;;;;;;;;1.10;99.90;;;;;;4991791;28;19996;-65
2023/03/11 05:46:47;;;;;;;;;;;1.10;99.90;;;;;;4993959;28;19918;-65
2023/03/11 05:49:12;;;;;;;;;;;1.00;99.90;;;;;;4991847;28;20450;-66
2023/03/11 05:51:38;;;;;;;;;;;1.10;99.90;;;;;;4993352;28;20012;-65
2023/03/11 05:54:10;;;;;;;;;;;1.10;99.90;;;;;;4988623;28;19919;-65
2023/03/11 05:56:35;;;;;;;;;;;1.20;99.90;;;;;;4991870;28;20040;-64
2023/03/11 05:59:01;;;;;;;;;;;1.10;99.90;;;;;;4991674;28;19997;-66
2023/03/11 06:01:26;;;;;;;;;;;1.10;99.90;;;;;;5000561;28;19918;-65
2023/03/11 06:03:52;;;;;;;;;;;1.10;99.90;;;;;;4992756;28;20410;-67
2023/03/11 06:06:17;;;;;;;;;;;1.10;99.90;;;;;;4990801;28;19917;-65
2023/03/11 06:08:48;;;;;;;;;;;1.00;99.90;;;;;;4989145;28;19920;-66
2023/03/11 06:11:14;;;;;;;;;;;1.10;99.90;;;;;;4990886;28;20291;-66
2023/03/11 06:13:39;;;;;;;;;;;1.10;99.90;;;;;;4974710;28;19965;-65
2023/03/11 06:16:05;;;;;;;;;;;1.00;99.90;;;;;;4986405;28;20422;-66
2023/03/11 06:18:31;;;;;;;;;;;1.10;99.90;;;;;;4993906;28;19936;-66
2023/03/11 06:20:57;;;;;;;;;;;1.20;99.90;;;;;;4993427;28;20539;-66
2023/03/11 06:23:23;;;;;;;;;;;1.10;99.90;;;;;;4990968;28;20052;-66
2023/03/11 06:25:58;;;;;;;;;;;1.10;99.90;;;;;;4992668;28;20387;-65
2023/03/11 06:28:24;;;;;;;;;;;1.20;99.90;;;;;;4990385;28;19914;-66
2023/03/11 06:30:49;;;;;;;;;;;1.20;99.90;;;;;;4976474;28;19918;-65
2023/03/11 06:33:15;;;;;;;;;;;1.30;99.90;;;;;;4988268;28;19994;-66
2023/03/11 06:35:40;;;;;;;;;;;1.30;99.90;;;;;;4990229;28;20426;-63
2023/03/11 06:38:06;;;;;;;;;;;1.30;99.90;;;;;;4986103;28;20012;-66
2023/03/11 06:40:32;;;;;;;;;;;1.40;99.90;;;;;;4986946;28;19920;-66
2023/03/11 06:42:57;;;;;;;;;;;1.50;99.90;;;;;;4990710;28;20061;-66
2023/03/11 06:45:23;;;;;;;;;;;1.50;99.90;;;;;;4990884;28;19977;-66
2023/03/11 06:47:48;;;;;;;;;;;1.50;99.90;;;;;;4987461;28;19914;-65
2023/03/11 06:50:14;;;;;;;;;;;1.50;99.90;;;;;;4991928;28;19944;-66
2023/03/11 06:52:39;;;;;;;;;;;1.60;99.90;;;;;;4990053;28;19921;-66
2023/03/11 06:55:05;;;;;;;;;;;1.60;99.90;;;;;;4991242;28;19972;-66
2023/03/11 06:57:31;;;;;;;;;;;1.60;99.90;;;;;;4993448;28;19964;-65
2023/03/11 06:59:57;;;;;;;;;;;1.60;99.90;;;;;;4991506;28;19913;-65
2023/03/11 07:02:22;;;;;;;;;;;1.60;99.90;;;;;;4988071;28;20000;-65
2023/03/11 07:04:48;;;;;;;;;;;1.70;99.90;;;;;;4993011;28;19960;-65
2023/03/11 07:07:14;;;;;;;;;;;1.70;99.90;;;;;;4992138;28;20000;-65
2023/03/11 07:09:39;;;;;;;;;;;1.60;99.90;;;;;;4994791;28;20016;-66
2023/03/11 07:12:05;;;;;;;;;;;1.70;99.90;;;;;;4993655;28;19921;-65
2023/03/11 07:14:30;;;;;;;;;;;1.80;99.90;;;;;;4989267;28;19990;-64
2023/03/11 07:16:56;;;;;;;;;;;1.80;99.90;;;;;;4986955;28;20268;-71
2023/03/11 07:19:21;;;;;;;;;;;1.80;99.90;;;;;;4987626;28;19920;-64
2023/03/11 07:21:46;;;;;;;;;;;1.80;99.90;;;;;;4990401;28;19913;-64
2023/03/11 07:24:13;;;;;;;;;;;1.90;99.90;;;;;;4989119;28;19921;-65
2023/03/11 07:26:39;;;;;;;;;;;1.90;99.90;;;;;;4990664;28;20311;-65
2023/03/11 07:29:04;;;;;;;;;;;2.00;99.90;;;;;;4988703;28;20384;-65
2023/03/11 07:31:31;;;;;;;;;;;2.00;99.90;;;;;;4990487;28;19968;-65
2023/03/11 07:33:58;;;;;;;;;;;2.00;99.90;;;;;;4989143;28;19957;-64
2023/03/11 07:36:24;;;;;;;;;;;2.00;99.90;;;;;;4986048;28;20421;-65
2023/03/11 07:39:01;;;;;;;;;;;2.00;99.90;;;;;;4982834;28;19993;-65
2023/03/11 07:41:28;;;;;;;;;;;2.00;99.90;;;;;;4989789;28;20007;-65
2023/03/11 07:43:54;;;;;;;;;;;2.00;99.90;;;;;;5001098;28;19922;-65
2023/03/11 07:46:21;;;;;;;;;;;2.00;99.90;;;;;;4988084;28;20418;-64
2023/03/11 07:48:47;;;;;;;;;;;2.10;99.90;;;;;;4987883;28;19944;-65
2023/03/11 07:51:15;;;;;;;;;;;2.20;99.90;;;;;;4992107;28;19926;-66
2023/03/11 07:53:41;;;;;;;;;;;2.20;99.90;;;;;;4993417;28;20471;-65
2023/03/11 07:56:07;;;;;;;;;;;2.30;99.90;;;;;;4990889;28;19997;-65
2023/03/11 07:58:33;;;;;;;;;;;2.40;99.90;;;;;;4992035;28;20292;-66
2023/03/11 08:01:24;;;;;;;;;;;2.30;99.90;;;;;;4989126;28;19925;-65
2023/03/11 08:03:55;;;;;;;;;;;2.40;99.90;;;;;;4984093;28;20157;-65
2023/03/11 08:06:23;;;;;;;;;;;2.40;99.90;;;;;;4988380;28;20017;-65
2023/03/11 08:08:49;;;;;;;;;;;2.50;99.90;;;;;;4981939;28;20040;-65
2023/03/11 08:11:15;;;;;;;;;;;2.50;99.90;;;;;;4985550;28;20797;-64
2023/03/11 08:13:41;;;;;;;;;;;2.60;99.90;;;;;;4990953;28;19921;-65
2023/03/11 08:16:07;;;;;;;;;;;2.60;99.90;;;;;;4988088;28;19914;-65
2023/03/11 08:18:33;;;;;;;;;;;2.60;99.90;;;;;;4992240;28;20760;-65
2023/03/11 08:20:59;;;;;;;;;;;2.70;99.90;;;;;;4978396;28;20008;-65
2023/03/11 08:23:24;;;;;;;;;;;2.70;99.90;;;;;;4993502;28;20384;-65
2023/03/11 08:25:50;;;;;;;;;;;2.70;99.90;;;;;;4994966;28;19983;-65
2023/03/11 08:28:15;;;;;;;;;;;2.80;99.90;;;;;;4995873;28;20295;-65
2023/03/11 08:30:41;;;;;;;;;;;2.80;99.90;;;;;;4998169;28;19914;-65
2023/03/11 08:33:06;;;;;;;;;;;2.80;99.90;;;;;;4994117;28;19914;-64
2023/03/11 08:35:32;;;;;;;;;;;2.80;99.90;;;;;;4995170;28;20372;-65
2023/03/11 08:37:57;;;;;;;;;;;2.90;99.90;;;;;;4993621;28;19996;-65
2023/03/11 08:40:23;;;;;;;;;;;2.90;99.90;;;;;;4995186;28;19952;-64
2023/03/11 08:42:48;;;;;;;;;;;3.00;99.90;;;;;;4994082;28;20033;-65
2023/03/11 08:45:14;;;;;;;;;;;3.10;99.90;;;;;;4994691;28;19914;-65
2023/03/11 08:47:40;;;;;;;;;;;3.20;99.90;;;;;;4994722;28;19921;-65
2023/03/11 08:50:07;;;;;;;;;;;3.30;99.90;;;;;;4975302;28;19920;-65
2023/03/11 08:52:33;;;;;;;;;;;3.30;99.90;;;;;;4991837;28;20354;-64
2023/03/11 08:54:58;;;;;;;;;;;3.20;99.90;;;;;;4992921;28;20000;-64
2023/03/11 08:57:24;;;;;;;;;;;3.20;99.90;;;;;;4977648;28;20293;-64
2023/03/11 08:59:49;;;;;;;;;;;3.20;99.90;;;;;;4988659;28;19924;-63
2023/03/11 09:02:14;;;;;;;;;;;3.30;99.90;;;;;;4989680;28;19975;-64
2023/03/11 09:04:40;;;;;;;;;;;3.40;99.90;;;;;;4992758;28;19925;-64
2023/03/11 09:07:05;;;;;;;;;;;3.50;99.90;;;;;;4986801;28;19918;-62
2023/03/11 09:09:31;;;;;;;;;;;3.50;99.90;;;;;;4994370;28;19932;-64
2023/03/11 09:11:56;;;;;;;;;;;3.50;99.90;;;;;;4992194;28;20158;-61
2023/03/11 09:14:22;;;;;;;;;;;3.50;99.90;;;;;;4992385;28;19924;-62
2023/03/11 09:16:47;;;;;;;;;;;3.40;99.90;;;;;;5000137;28;19972;-63
2023/03/11 09:19:12;;;;;;;;;;;3.50;99.90;;;;;;4995429;28;19914;-62
2023/03/11 09:21:38;;;;;;;;;;;3.50;99.90;;;;;;4996841;28;19920;-63
2023/03/11 09:24:04;;;;;;;;;;;3.50;99.90;;;;;;4991192;28;20395;-61
2023/03/11 09:26:29;;;;;;;;;;;3.70;99.90;;;;;;4994237;28;19972;-62
2023/03/11 09:28:55;;;;;;;;;;;3.90;99.90;;;;;;4994552;28;19975;-62
2023/03/11 09:31:21;;;;;;;;;;;4.10;99.90;;;;;;4994874;28;19917;-64
2023/03/11 09:33:46;;;;;;;;;;;4.20;99.90;;;;;;4991971;28;19941;-65
2023/03/11 09:36:13;;;;;;;;;;;4.10;99.90;;;;;;4975814;28;20320;-62
2023/03/11 09:38:39;;;;;;;;;;;4.00;99.90;;;;;;4974934;28;19940;-64
2023/03/11 09:41:25;;;;;;;;;;;4.00;99.90;;;;;;4988945;28;19922;-64
2023/03/11 09:44:02;;;;;;;;;;;4.00;99.90;;;;;;4991113;28;19925;-62
2023/03/11 09:46:33;;;;;;;;;;;4.10;99.90;;;;;;4979139;28;19926;-62
2023/03/11 09:49:15;;;;;;;;;;;4.20;99.90;;;;;;4999846;28;19921;-60
2023/03/11 09:51:41;;;;;;;;;;;;;;;;;;4979333;28;19913;-67
2023/03/11 09:54:10;;;;;;;;;;;4.50;99.90;;;;;;5008100;28;19968;-65
2023/03/11 09:56:36;;;;;;;;;;;4.50;99.90;;;;;;4972017;28;19941;-62
2023/03/11 09:59:08;;;;;;;;;;;4.60;99.90;;;;;;5010367;28;19928;-64
2023/03/11 10:01:44;;;;;;;;;;;4.80;99.90;;;;;;4995055;28;20020;-64
2023/03/11 10:04:09;;;;;;;;;;;5.10;99.90;;;;;;4978472;28;19918;-65
2023/03/11 10:06:35;;;;;;;;;;;5.30;99.90;;;;;;4992587;28;20288;-62
2023/03/11 10:09:13;;;;;;;;;;;5.60;99.90;;;;;;5006104;28;20380;-60
2023/03/11 10:11:44;;;;;;;;;;;5.70;99.90;;;;;;4992054;28;19953;-59
2023/03/11 10:14:26;;;;;;;;;;;5.70;99.90;;;;;;5002564;28;20303;-58
2023/03/11 10:17:12;;;;;;;;;;;5.70;99.90;;;;;;4991465;28;19980;-60
2023/03/11 10:19:47;;;;;;;;;;;5.20;99.90;;;;;;4977258;28;20012;-62
2023/03/11 10:22:31;;;;;;;;;;;5.20;99.90;;;;;;4993287;28;19913;-62
2023/03/11 10:25:00;;;;;;;;;;;5.10;99.90;;;;;;4989807;28;19918;-63
2023/03/11 10:27:33;;;;;;;;;;;5.30;99.90;;;;;;4988926;28;20361;-59
2023/03/11 10:30:05;;;;;;;;;;;5.50;99.90;;;;;;4973681;28;19918;-61
2023/03/11 10:32:30;;;;;;;;;;;5.70;99.90;;;;;;4961579;28;19953;-65
2023/03/11 10:35:15;;;;;;;;;;;5.60;99.90;;;;;;4976338;28;19992;-61
2023/03/11 10:38:13;;;;;;;;;;;5.80;99.90;;;;;;4994763;28;19914;-65
2023/03/11 10:40:41;;;;;;;;;;;5.30;99.90;;;;;;4957566;28;20014;-59
2023/03/11 10:43:17;;;;;;;;;;;5.30;99.90;;;;;;4990685;28;20004;-61
2023/03/11 10:45:45;;;;;;;;;;;5.10;99.90;;;;;;4991355;28;20526;-60
2023/03/11 10:48:11;;;;;;;;;;;5.00;99.90;;;;;;4975369;28;19977;-60
2023/03/11 10:50:41;;;;;;;;;;;4.90;99.90;;;;;;4989855;28;20537;-61
2023/03/11 10:53:08;;;;;;;;;;;4.90;99.90;;;;;;4986967;28;20388;-63
2023/03/11 10:55:34;;;;;;;;;;;5.00;99.90;;;;;;4988678;28;19973;-62
2023/03/11 10:58:04;;;;;;;;;;;5.00;99.90;;;;;;4989259;28;19913;-60
2023/03/11 11:00:30;;;;;;;;;;;4.90;99.90;;;;;;4989621;28;19920;-62
2023/03/11 11:02:57;;;;;;;;;;;4.90;99.90;;;;;;4988335;28;19917;-63
2023/03/11 11:05:22;;;;;;;;;;;;;;;;;;4972301;28;19949;-65
2023/03/11 11:07:49;;;;;;;;;;;5.00;99.90;;;;;;4984097;28;20023;-64
2023/03/11 11:10:17;;;;;;;;;;;5.20;99.90;;;;;;4989791;28;19921;-63
2023/03/11 11:12:49;;;;;;;;;;;5.50;99.90;;;;;;4991006;28;20032;-61
2023/03/11 11:15:31;;;;;;;;;;;5.60;99.90;;;;;;4985998;28;20232;-61
2023/03/11 11:18:05;;;;;;;;;;;5.80;99.90;;;;;;4992855;28;19929;-60
2023/03/11 11:20:31;;;;;;;;;;;5.80;99.90;;;;;;4990724;28;19914;-61
2023/03/11 11:22:57;;;;;;;;;;;5.70;99.90;;;;;;4973396;28;20343;-59
2023/03/11 11:25:42;;;;;;;;;;;5.80;99.90;;;;;;4989111;28;19922;-61
2023/03/11 11:28:16;;;;;;;;;;;5.80;99.50;;;;;;4971788;28;19949;-61
2023/03/11 11:30:54;;;;;;;;;;;6.10;99.90;;;;;;4971452;28;20380;-61
2023/03/11 11:33:21;;;;;;;;;;;6.50;99.90;;;;;;4982620;28;19953;-62
2023/03/11 11:35:50;;;;;;;;;;;6.30;96.90;;;;;;4983992;28;20020;-61
2023/03/11 11:38:15;;;;;;;;;;;6.20;99.90;;;;;;5005722;28;19914;-66
2023/03/11 11:40:41;;;;;;;;;;;6.20;99.90;;;;;;4989913;28;20020;-66
2023/03/11 11:43:29;;;;;;;;;;;6.00;96.70;;;;;;5001388;28;19917;-61
2023/03/11 11:45:56;;;;;;;;;;;6.00;99.90;;;;;;4986640;28;20392;-61
2023/03/11 11:48:22;;;;;;;;;;;6.10;99.90;;;;;;4989903;28;19914;-64
2023/03/11 11:50:50;;;;;;;;;;;6.30;99.90;;;;;;4983034;28;19921;-63
2023/03/11 11:53:38;;;;;;;;;;;6.30;99.90;;;;;;4988175;28;19969;-64
2023/03/11 11:56:04;;;;;;;;;;;5.70;98.80;;;;;;4990888;28;20285;-64
2023/03/11 11:58:29;;;;;;;;;;;6.00;99.90;;;;;;4991374;28;19981;-63
2023/03/11 12:01:04;;;;;;;;;;;6.60;99.90;;;;;;4988333;28;19921;-63
2023/03/11 12:03:49;;;;;;;;;;;7.10;99.10;;;;;;4987422;28;19922;-60
2023/03/11 12:06:21;;;;;;;;;;;7.30;96.40;;;;;;4987447;28;19913;-60
2023/03/11 12:08:54;;;;;;;;;;;7.00;97.00;;;;;;4992072;28;19925;-61
2023/03/11 12:11:23;;;;;;;;;;;6.80;97.70;;;;;;4985967;28;19929;-63
2023/03/11 12:13:53;;;;;;;;;;;6.80;96.90;;;;;;4969540;28;19922;-65
2023/03/11 12:16:25;;;;;;;;;;;6.70;96.90;;;;;;4983873;28;19913;-61
2023/03/11 12:18:55;;;;;;;;;;;7.10;98.00;;;;;;4980818;28;19913;-62
2023/03/11 12:21:44;;;;;;;;;;;6.90;97.40;;;;;;4987382;28;20312;-61
2023/03/11 12:24:17;;;;;;;;;;;7.00;98.50;;;;;;4982562;28;19960;-65
2023/03/11 12:26:45;;;;;;;;;;;7.10;99.90;;;;;;4988997;28;19944;-64
2023/03/11 12:29:10;;;;;;;;;;;6.70;96.50;;;;;;4990703;28;19914;-64
2023/03/11 12:31:38;;;;;;;;;;;6.90;96.80;;;;;;4988270;28;19918;-64
2023/03/11 12:34:06;;;;;;;;;;;6.90;97.60;;;;;;4986484;28;20372;-65
2023/03/11 12:36:36;;;;;;;;;;;6.70;99.90;;;;;;4986626;28;19913;-65
2023/03/11 12:39:04;;;;;;;;;;;6.30;99.90;;;;;;4990982;28;19922;-65
2023/03/11 12:41:41;;;;;;;;;;;5.90;99.90;;;;;;4989600;28;19917;-64
2023/03/11 12:44:22;;;;;;;;;;;5.80;99.90;;;;;;4986550;28;19953;-68
2023/03/11 12:46:53;;;;;;;;;;;5.70;99.90;;;;;;4986835;28;20299;-65
2023/03/11 12:49:19;;;;;;;;;;;;;;;;;;4988675;28;20404;-65
2023/03/11 12:51:45;;;;;;;;;;;;;;;;;;4989308;28;19922;-66
2023/03/11 12:54:29;;;;;;;;;;;5.80;99.90;;;;;;4985836;28;20327;-63
2023/03/11 12:57:04;;;;;;;;;;;5.80;99.90;;;;;;4983299;28;20104;-65
2023/03/11 12:59:29;;;;;;;;;;;5.80;99.90;;;;;;4991833;28;19970;-66
2023/03/11 13:02:18;;;;;;;;;;;5.90;99.90;;;;;;4987928;28;19914;-63
2023/03/11 13:04:51;;;;;;;;;;;6.10;99.90;;;;;;4984999;28;19926;-66
2023/03/11 13:07:16;;;;;;;;;;;6.30;99.90;;;;;;4987800;28;19918;-63
2023/03/11 13:09:42;;;;;;;;;;;6.60;99.90;;;;;;4987866;28;19914;-63
2023/03/11 13:12:26;;;;;;;;;;;6.60;97.40;;;;;;4993548;28;19921;-62
2023/03/11 13:15:17;;;;;;;;;;;6.50;99.90;;;;;;4988772;28;20406;-62
2023/03/11 13:18:01;;;;;;;;;;;6.70;99.70;;;;;;4996692;28;19930;-64
2023/03/11 13:20:42;;;;;;;;;;;6.80;99.20;;;;;;4995790;28;19982;-64
2023/03/11 13:23:13;;;;;;;;;;;7.00;98.50;;;;;;4990544;28;19922;-65
2023/03/11 13:26:04;;;;;;;;;;;7.60;99.20;;;;;;4990138;28;19926;-61
2023/03/11 13:28:39;;;;;;;;;;;8.00;98.00;;;;;;4972338;28;21673;-62
2023/03/11 13:31:05;;;;;;;;;;;8.10;94.60;;;;;;4991234;28;19914;-62
2023/03/11 13:33:38;;;;;;;;;;;7.50;97.90;;;;;;4991043;28;19951;-60
2023/03/11 13:36:10;;;;;;;;;;;7.60;99.90;;;;;;4994075;28;20439;-62
2023/03/11 13:38:44;;;;;;;;;;;7.40;98.60;;;;;;4990980;28;19972;-63
2023/03/11 13:41:14;;;;;;;;;;;7.00;99.90;;;;;;4989098;28;20331;-61
2023/03/11 13:43:44;;;;;;;;;;;7.30;98.80;;;;;;4991643;28;19956;-63
2023/03/11 13:46:37;;;;;;;;;;;7.60;99.90;;;;;;4991416;28;19914;-65
2023/03/11 13:49:13;;;;;;;;;;;7.70;99.90;;;;;;4992930;28;20047;-64
2023/03/11 13:51:41;;;;;;;;;;;7.90;96.90;;;;;;4984671;28;20307;-67
2023/03/11 13:54:19;;;;;;;;;;;7.50;98.90;;;;;;4995836;28;19921;-67
2023/03/11 13:56:52;;;;;;;;;;;7.60;98.30;;;;;;4990821;28;19913;-64
2023/03/11 13:59:33;;;;;;;;;;;7.40;96.20;;;;;;4988347;28;19928;-66
2023/03/11 14:02:00;;;;;;;;;;;7.20;97.80;;;;;;4988573;28;19922;-62
2023/03/11 14:04:27;;;;;;;;;;;7.60;96.00;;;;;;4991014;28;19917;-63
2023/03/11 14:06:53;;;;;;;;;;;7.80;97.00;;;;;;4984428;28;20573;-64
2023/03/11 14:09:19;;;;;;;;;;;8.20;97.70;;;;;;4988812;28;20013;-65
2023/03/11 14:11:47;;;;;;;;;;;8.50;95.90;;;;;;4983136;28;20957;-65
2023/03/11 14:14:31;;;;;;;;;;;8.90;94.70;;;;;;4988480;28;20303;-65
2023/03/11 14:17:00;;;;;;;;;;;8.90;94.80;;;;;;4990981;28;19944;-60
2023/03/11 14:19:27;;;;;;;;;;;9.20;95.20;;;;;;4986979;28;19949;-64
2023/03/11 14:21:54;;;;;;;;;;;9.00;95.10;;;;;;4989401;28;20402;-60
2023/03/11 14:24:27;;;;;;;;;;;8.80;93.90;;;;;;4985634;28;20359;-62
2023/03/11 14:26:54;;;;;;;;;;;9.00;94.00;;;;;;4989127;28;20392;-58
2023/03/11 14:29:30;;;;;;;;;;;8.90;93.80;;;;;;4970449;28;21289;-63
2023/03/11 14:31:55;;;;;;;;;;;8.70;93.50;;;;;;4985908;28;20283;-63
2023/03/11 14:34:24;;;;;;;;;;;8.20;93.10;;;;;;4972129;28;19913;-60
2023/03/11 14:36:53;;;;;;;;;;;8.40;95.00;;;;;;4986832;28;19932;-68
2023/03/11 14:39:31;;;;;;;;;;;8.30;95.20;;;;;;4986644;28;19918;-60